createdAt,value
2019-05-22T00:00:54.557Z,10.6
2019-05-22T00:01:54.595Z,10.6
2019-05-22T00:02:54.711Z,10.6
2019-05-22T00:03:54.740Z,10.6
2019-05-22T00:04:54.897Z,10.7
2019-05-22T00:05:54.945Z,10.7
2019-05-22T00:06:54.943Z,10.6
2019-05-22T00:07:55.064Z,10.7
2019-05-22T00:08:55.135Z,10.7
2019-05-22T00:09:55.169Z,10.7
2019-05-22T00:10:55.267Z,10.6
2019-05-22T00:11:55.385Z,35.4
2019-05-22T00:12:55.311Z,10.6
2019-05-22T00:13:55.397Z,10.6
2019-05-22T00:14:55.428Z,10.6
2019-05-22T00:15:55.486Z,10.6
2019-05-22T00:16:55.711Z,10.6
2019-05-22T00:17:55.656Z,10.5
2019-05-22T00:18:55.787Z,10.6
2019-05-22T00:19:55.700Z,10.6
2019-05-22T00:20:55.738Z,10.6
2019-05-22T00:21:55.816Z,10.6
2019-05-22T00:22:55.872Z,10.6
2019-05-22T00:23:55.943Z,10.6
2019-05-22T00:24:56.039Z,10.6
2019-05-22T00:25:56.062Z,10.6
2019-05-22T00:26:56.081Z,10.5
2019-05-22T00:27:56.151Z,10.5
2019-05-22T00:28:56.236Z,10.6
2019-05-22T00:29:56.299Z,10.6
2019-05-22T00:30:56.347Z,10.6
2019-05-22T00:31:56.363Z,10.5
2019-05-22T00:32:56.416Z,10.5
2019-05-22T00:33:56.478Z,10.6
2019-05-22T00:34:57.428Z,10.6
2019-05-22T00:35:56.593Z,10.6
2019-05-22T00:36:56.675Z,10.6
2019-05-22T00:37:56.696Z,10.6
2019-05-22T00:38:56.752Z,10.5
2019-05-22T00:39:56.771Z,10.5
2019-05-22T00:40:56.863Z,10.5
2019-05-22T00:41:56.932Z,10.5
2019-05-22T00:43:03.966Z,10.6
2019-05-22T00:43:57.010Z,10.6
2019-05-22T00:44:57.465Z,10.6
2019-05-22T00:45:57.124Z,10.6
2019-05-22T00:46:57.204Z,10.6
2019-05-22T00:47:57.239Z,10.7
2019-05-22T00:48:57.319Z,10.7
2019-05-22T00:49:57.369Z,10.6
2019-05-22T00:50:57.464Z,10.6
2019-05-22T00:51:57.562Z,10.6
2019-05-22T00:52:57.594Z,10.6
2019-05-22T00:53:57.671Z,10.5
2019-05-22T00:54:57.685Z,10.5
2019-05-22T00:55:57.758Z,10.5
2019-05-22T00:56:57.854Z,10.5
2019-05-22T00:57:57.877Z,10.6
2019-05-22T00:58:57.934Z,10.6
2019-05-22T00:59:57.984Z,10.6
2019-05-22T01:00:58.033Z,10.5
2019-05-22T01:01:58.091Z,10.6
2019-05-22T01:02:58.204Z,10.6
2019-05-22T01:03:58.270Z,10.6
2019-05-22T01:04:58.264Z,10.6
2019-05-22T01:05:58.316Z,10.6
2019-05-22T01:06:58.381Z,10.6
2019-05-22T01:07:58.461Z,10.6
2019-05-22T01:08:58.502Z,10.6
2019-05-22T01:09:58.569Z,10.6
2019-05-22T01:10:58.639Z,10.7
2019-05-22T01:11:58.695Z,10.6
2019-05-22T01:12:58.793Z,10.6
2019-05-22T01:13:58.856Z,10.6
2019-05-22T01:14:58.904Z,10.7
2019-05-22T01:15:58.957Z,10.7
2019-05-22T01:16:59.049Z,10.7
2019-05-22T01:17:59.106Z,10.7
2019-05-22T01:18:59.149Z,10.6
2019-05-22T01:19:59.202Z,10.6
2019-05-22T01:20:59.258Z,10.6
2019-05-22T01:21:59.288Z,10.6
2019-05-22T01:22:59.311Z,10.5
2019-05-22T01:23:59.429Z,10.5
2019-05-22T01:24:59.447Z,10.6
2019-05-22T01:25:59.506Z,10.6
2019-05-22T01:26:59.640Z,10.5
2019-05-22T01:27:59.618Z,10.5
2019-05-22T01:28:59.718Z,10.5
2019-05-22T01:29:59.751Z,10.4
2019-05-22T01:30:59.793Z,10.5
2019-05-22T01:31:59.872Z,10.5
2019-05-22T01:32:59.935Z,10.5
2019-05-22T01:34:00.039Z,10.4
2019-05-22T01:35:00.025Z,10.5
2019-05-22T01:36:00.541Z,10.5
2019-05-22T01:37:00.560Z,10.4
2019-05-22T01:38:00.562Z,10.4
2019-05-22T01:39:00.493Z,10.4
2019-05-22T01:40:00.517Z,10.4
2019-05-22T01:41:00.598Z,10.4
2019-05-22T01:42:00.622Z,10.4
2019-05-22T01:43:00.526Z,10.5
2019-05-22T01:44:00.614Z,10.5
2019-05-22T01:45:06.340Z,10.5
2019-05-22T01:46:00.743Z,10.5
2019-05-22T01:47:00.747Z,10.5
2019-05-22T01:48:00.824Z,10.5
2019-05-22T01:49:00.919Z,10.5
2019-05-22T01:50:00.963Z,10.4
2019-05-22T01:51:01.030Z,10.4
2019-05-22T01:52:01.071Z,10.4
2019-05-22T01:53:01.116Z,10.5
2019-05-22T01:54:01.221Z,10.3
2019-05-22T01:55:01.249Z,10.3
2019-05-22T01:56:01.366Z,10.3
2019-05-22T01:57:01.413Z,10.4
2019-05-22T01:58:01.483Z,10.4
2019-05-22T01:59:01.527Z,10.4
2019-05-22T02:00:02.016Z,10.4
2019-05-22T02:01:02.109Z,10.4
2019-05-22T02:02:01.808Z,10.4
2019-05-22T02:03:01.798Z,10.4
2019-05-22T02:04:01.842Z,10.4
2019-05-22T02:05:01.861Z,10.3
2019-05-22T02:06:01.927Z,10.3
2019-05-22T02:07:01.911Z,10.3
2019-05-22T02:08:02.024Z,10.3
2019-05-22T02:09:02.048Z,10.3
2019-05-22T02:10:02.696Z,10.3
2019-05-22T02:11:02.171Z,10.3
2019-05-22T02:12:02.263Z,10.3
2019-05-22T02:13:02.333Z,10.3
2019-05-22T02:14:02.360Z,10.4
2019-05-22T02:15:02.448Z,10.4
2019-05-22T02:16:02.478Z,10.4
2019-05-22T02:17:02.529Z,10.4
2019-05-22T02:18:02.608Z,10.4
2019-05-22T02:19:02.667Z,10.4
2019-05-22T02:20:02.814Z,10.3
2019-05-22T02:21:02.804Z,10.3
2019-05-22T02:22:02.921Z,10.4
2019-05-22T02:23:02.952Z,10.4
2019-05-22T02:24:03.058Z,10.4
2019-05-22T02:25:03.089Z,10.4
2019-05-22T02:26:03.224Z,10.4
2019-05-22T02:27:03.465Z,10.4
2019-05-22T02:28:03.462Z,10.4
2019-05-22T02:29:03.338Z,10.3
2019-05-22T02:30:03.486Z,10.3
2019-05-22T02:31:03.494Z,10.3
2019-05-22T02:32:03.645Z,10.4
2019-05-22T02:33:03.646Z,10.3
2019-05-22T02:34:03.732Z,10.3
2019-05-22T02:35:03.752Z,10.3
2019-05-22T02:36:03.753Z,10.3
2019-05-22T02:37:03.733Z,10.3
2019-05-22T02:38:03.838Z,10.3
2019-05-22T02:39:03.849Z,10.3
2019-05-22T02:40:03.919Z,10.3
2019-05-22T02:41:04.054Z,10.3
2019-05-22T02:42:04.073Z,10.4
2019-05-22T02:43:04.099Z,10.3
2019-05-22T02:44:04.252Z,10.2
2019-05-22T02:45:04.219Z,10.3
2019-05-22T02:46:04.290Z,10.3
2019-05-22T02:47:17.594Z,10.3
2019-05-22T02:48:04.393Z,10.3
2019-05-22T02:49:04.413Z,10.3
2019-05-22T02:50:04.467Z,10.3
2019-05-22T02:51:04.528Z,10.3
2019-05-22T02:52:04.680Z,10.2
2019-05-22T02:53:04.671Z,10.2
2019-05-22T02:54:04.725Z,10.2
2019-05-22T02:55:04.762Z,10.2
2019-05-22T02:56:04.830Z,10.3
2019-05-22T02:57:04.930Z,10.3
2019-05-22T02:58:04.957Z,10.3
2019-05-22T02:59:05.009Z,10.3
2019-05-22T03:00:05.151Z,10.4
2019-05-22T03:01:05.169Z,10.4
2019-05-22T03:02:05.248Z,10.3
2019-05-22T03:03:05.297Z,10.3
2019-05-22T03:04:05.330Z,10.3
2019-05-22T03:05:05.427Z,10.2
2019-05-22T03:06:05.456Z,10.2
2019-05-22T03:07:05.579Z,10.1
2019-05-22T03:08:05.559Z,10.1
2019-05-22T03:09:05.634Z,10.1
2019-05-22T03:10:05.840Z,10.1
2019-05-22T03:11:05.789Z,10.2
2019-05-22T03:12:06.559Z,10.1
2019-05-22T03:13:05.949Z,10.1
2019-05-22T03:14:06.040Z,10.1
2019-05-22T03:15:06.066Z,10.1
2019-05-22T03:16:06.067Z,10
2019-05-22T03:17:06.166Z,10
2019-05-22T03:18:07.061Z,10
2019-05-22T03:19:09.140Z,10
2019-05-22T03:20:06.972Z,10
2019-05-22T03:21:06.342Z,10.1
2019-05-22T03:22:07.332Z,10.1
2019-05-22T03:23:06.474Z,10.1
2019-05-22T03:24:07.338Z,10.1
2019-05-22T03:25:06.597Z,10
2019-05-22T03:26:06.865Z,10.1
2019-05-22T03:27:06.717Z,10.1
2019-05-22T03:28:06.968Z,10
2019-05-22T03:29:06.826Z,10
2019-05-22T03:30:08.073Z,10
2019-05-22T03:31:07.412Z,10.1
2019-05-22T03:32:07.108Z,10.1
2019-05-22T03:33:07.184Z,10.1
2019-05-22T03:34:08.077Z,10.1
2019-05-22T03:35:07.406Z,10.1
2019-05-22T03:36:08.228Z,10
2019-05-22T03:37:07.297Z,9.9
2019-05-22T03:38:07.821Z,9.9
2019-05-22T03:39:07.464Z,10
2019-05-22T03:40:07.596Z,10
2019-05-22T03:41:07.524Z,10.1
2019-05-22T03:42:07.587Z,10
2019-05-22T03:43:07.662Z,10.1
2019-05-22T03:44:07.759Z,10
2019-05-22T03:45:07.842Z,10
2019-05-22T03:46:09.776Z,10
2019-05-22T03:47:07.891Z,10
2019-05-22T03:48:07.972Z,10
2019-05-22T03:49:08.045Z,10.1
2019-05-22T03:50:10.518Z,10.1
2019-05-22T03:51:08.129Z,10.2
2019-05-22T03:52:08.343Z,10.1
2019-05-22T03:53:08.256Z,10
2019-05-22T03:54:09.686Z,10.1
2019-05-22T03:55:08.317Z,10
2019-05-22T03:56:08.678Z,10
2019-05-22T03:57:08.452Z,10
2019-05-22T03:58:10.467Z,9.8
2019-05-22T03:59:08.586Z,9.8
2019-05-22T04:00:09.502Z,9.8
2019-05-22T04:01:08.728Z,9.9
2019-05-22T04:02:09.980Z,9.9
2019-05-22T04:03:08.820Z,9.9
2019-05-22T04:04:09.186Z,9.9
2019-05-22T04:05:08.909Z,9.9
2019-05-22T04:06:10.496Z,9.8
2019-05-22T04:07:09.112Z,9.8
2019-05-22T04:08:10.900Z,9.8
2019-05-22T04:09:09.141Z,9.7
2019-05-22T04:10:11.581Z,9.7
2019-05-22T04:11:09.288Z,9.8
2019-05-22T04:12:10.459Z,9.8
2019-05-22T04:13:09.370Z,9.8
2019-05-22T04:14:09.469Z,9.8
2019-05-22T04:15:09.990Z,9.8
2019-05-22T04:16:09.920Z,9.8
2019-05-22T04:17:10.425Z,9.7
2019-05-22T04:18:09.889Z,9.7
2019-05-22T04:19:10.579Z,9.7
2019-05-22T04:20:11.505Z,9.7
2019-05-22T04:21:13.858Z,9.7
2019-05-22T04:22:10.042Z,9.8
2019-05-22T04:23:10.915Z,9.7
2019-05-22T04:24:11.943Z,9.8
2019-05-22T04:25:11.261Z,9.8
2019-05-22T04:26:12.449Z,9.7
2019-05-22T04:27:11.477Z,9.6
2019-05-22T04:28:10.483Z,9.6
2019-05-22T04:29:11.877Z,9.6
2019-05-22T04:30:12.976Z,9.6
2019-05-22T04:31:12.117Z,9.6
2019-05-22T04:32:13.188Z,9.6
2019-05-22T04:33:12.247Z,9.6
2019-05-22T04:34:13.535Z,9.6
2019-05-22T04:35:12.880Z,9.5
2019-05-22T04:36:13.902Z,9.6
2019-05-22T04:37:12.953Z,9.6
2019-05-22T04:38:10.847Z,9.6
2019-05-22T04:39:11.059Z,9.6
2019-05-22T04:40:11.067Z,9.5
2019-05-22T04:41:11.067Z,9.5
2019-05-22T04:42:11.112Z,9.5
2019-05-22T04:43:11.235Z,9.6
2019-05-22T04:44:11.121Z,9.5
2019-05-22T04:45:11.232Z,9.5
2019-05-22T04:46:11.212Z,9.5
2019-05-22T04:47:11.377Z,9.5
2019-05-22T04:48:11.354Z,9.5
2019-05-22T04:49:11.379Z,9.5
2019-05-22T04:50:11.500Z,9.4
2019-05-22T04:51:19.581Z,9.5
2019-05-22T04:52:11.594Z,9.6
2019-05-22T04:53:11.630Z,9.5
2019-05-22T04:54:11.653Z,9.4
2019-05-22T04:55:11.708Z,9.5
2019-05-22T04:56:22.683Z,9.7
2019-05-22T04:57:19.209Z,9.8
2019-05-22T04:58:11.964Z,9.7
2019-05-22T04:59:12.070Z,9.5
2019-05-22T05:00:12.016Z,9.5
2019-05-22T05:01:12.058Z,9.5
2019-05-22T05:02:12.148Z,9.5
2019-05-22T05:03:12.197Z,9.5
2019-05-22T05:04:12.259Z,9.6
2019-05-22T05:05:12.536Z,9.7
2019-05-22T05:06:12.815Z,9.6
2019-05-22T05:07:12.499Z,9.7
2019-05-22T05:08:12.965Z,9.7
2019-05-22T05:09:12.616Z,9.6
2019-05-22T05:10:12.822Z,9.6
2019-05-22T05:11:12.663Z,9.6
2019-05-22T05:12:12.849Z,9.6
2019-05-22T05:13:12.822Z,9.6
2019-05-22T05:14:13.247Z,9.6
2019-05-22T05:15:13.121Z,9.5
2019-05-22T05:16:14.122Z,9.7
2019-05-22T05:17:13.234Z,9.7
2019-05-22T05:18:13.068Z,9.7
2019-05-22T05:19:13.107Z,9.7
2019-05-22T05:20:21.887Z,9.7
2019-05-22T05:21:24.806Z,9.8
2019-05-22T05:22:13.365Z,9.7
2019-05-22T05:23:13.457Z,9.7
2019-05-22T05:24:13.447Z,9.6
2019-05-22T05:25:13.515Z,9.6
2019-05-22T05:26:13.551Z,9.5
2019-05-22T05:27:13.640Z,9.5
2019-05-22T05:28:13.714Z,9.5
2019-05-22T05:29:13.703Z,9.5
2019-05-22T05:30:13.753Z,9.6
2019-05-22T05:31:13.822Z,9.6
2019-05-22T05:32:13.893Z,9.7
2019-05-22T05:33:13.990Z,9.7
2019-05-22T05:34:13.989Z,9.7
2019-05-22T05:35:14.092Z,9.7
2019-05-22T05:36:14.122Z,9.7
2019-05-22T05:37:14.212Z,9.7
2019-05-22T05:38:14.324Z,9.7
2019-05-22T05:39:14.300Z,9.7
2019-05-22T05:40:14.382Z,9.8
2019-05-22T05:41:14.400Z,9.7
2019-05-22T05:42:14.462Z,9.7
2019-05-22T05:43:14.512Z,9.7
2019-05-22T05:44:14.556Z,9.8
2019-05-22T05:45:14.593Z,9.8
2019-05-22T05:46:14.662Z,9.8
2019-05-22T05:47:14.695Z,9.8
2019-05-22T05:48:16.277Z,9.6
2019-05-22T05:49:14.834Z,9.6
2019-05-22T05:50:14.892Z,9.6
2019-05-22T05:51:14.975Z,9.6
2019-05-22T05:52:15.059Z,9.6
2019-05-22T05:53:15.111Z,9.5
2019-05-22T05:54:15.151Z,9.6
2019-05-22T05:55:15.222Z,9.6
2019-05-22T05:56:15.292Z,9.6
2019-05-22T05:57:15.353Z,9.7
2019-05-22T05:58:15.385Z,9.7
2019-05-22T05:59:15.445Z,9.7
2019-05-22T06:00:15.562Z,9.7
2019-05-22T06:01:15.594Z,9.7
2019-05-22T06:02:15.669Z,9.7
2019-05-22T06:03:15.760Z,9.5
2019-05-22T06:04:15.768Z,9.6
2019-05-22T06:05:15.804Z,9.7
2019-05-22T06:06:15.855Z,9.7
2019-05-22T06:07:15.925Z,9.7
2019-05-22T06:08:15.970Z,9.7
2019-05-22T06:09:16.082Z,9.7
2019-05-22T06:10:16.175Z,9.8
2019-05-22T06:11:16.177Z,9.8
2019-05-22T06:12:16.503Z,9.8
2019-05-22T06:13:16.290Z,9.8
2019-05-22T06:14:16.326Z,9.7
2019-05-22T06:15:16.418Z,9.8
2019-05-22T06:16:16.486Z,9.8
2019-05-22T06:17:16.522Z,10
2019-05-22T06:18:16.578Z,9.9
2019-05-22T06:19:16.629Z,9.9
2019-05-22T06:20:16.705Z,9.8
2019-05-22T06:21:32.741Z,9.9
2019-05-22T06:22:16.853Z,9.8
2019-05-22T06:23:16.878Z,9.7
2019-05-22T06:24:16.951Z,9.7
2019-05-22T06:25:17.009Z,9.8
2019-05-22T06:26:17.050Z,9.8
2019-05-22T06:27:17.081Z,10
2019-05-22T06:28:17.161Z,10.2
2019-05-22T06:29:17.212Z,10.1
2019-05-22T06:30:17.267Z,10.1
2019-05-22T06:31:17.325Z,10.2
2019-05-22T06:32:17.616Z,10.1
2019-05-22T06:33:17.448Z,10
2019-05-22T06:34:17.479Z,9.9
2019-05-22T06:35:17.548Z,9.8
2019-05-22T06:36:17.681Z,9.8
2019-05-22T06:37:17.655Z,9.8
2019-05-22T06:38:17.746Z,9.9
2019-05-22T06:39:17.821Z,9.9
2019-05-22T06:40:17.824Z,10.1
2019-05-22T06:41:17.880Z,10.2
2019-05-22T06:42:17.981Z,10.2
2019-05-22T06:43:18.041Z,10.1
2019-05-22T06:44:18.078Z,10.1
2019-05-22T06:45:18.138Z,10
2019-05-22T06:46:18.207Z,9.8
2019-05-22T06:47:18.291Z,9.8
2019-05-22T06:48:18.298Z,9.8
2019-05-22T06:49:18.344Z,9.8
2019-05-22T06:50:18.401Z,9.8
2019-05-22T06:51:50.037Z,10
2019-05-22T06:52:18.561Z,9.8
2019-05-22T06:53:18.632Z,9.9
2019-05-22T06:54:18.611Z,9.8
2019-05-22T06:55:18.654Z,9.9
2019-05-22T06:56:18.697Z,10
2019-05-22T06:57:18.808Z,9.9
2019-05-22T06:58:18.855Z,9.8
2019-05-22T06:59:18.919Z,10
2019-05-22T07:00:19.008Z,10
2019-05-22T07:01:19.040Z,9.9
2019-05-22T07:02:19.123Z,9.9
2019-05-22T07:03:19.178Z,9.9
2019-05-22T07:04:19.223Z,10.1
2019-05-22T07:05:19.269Z,10.1
2019-05-22T07:06:19.304Z,9.9
2019-05-22T07:07:19.411Z,9.9
2019-05-22T07:08:19.718Z,9.9
2019-05-22T07:09:19.474Z,9.9
2019-05-22T07:10:19.559Z,9.8
2019-05-22T07:11:19.642Z,9.8
2019-05-22T07:12:19.739Z,9.8
2019-05-22T07:13:19.809Z,9.8
2019-05-22T07:14:19.856Z,9.9
2019-05-22T07:15:19.883Z,9.8
2019-05-22T07:16:19.931Z,9.8
2019-05-22T07:17:20.005Z,9.9
2019-05-22T07:18:20.057Z,9.9
2019-05-22T07:19:20.121Z,9.9
2019-05-22T07:20:20.231Z,9.9
2019-05-22T07:21:33.267Z,10
2019-05-22T07:22:20.255Z,10
2019-05-22T07:23:20.331Z,9.9
2019-05-22T07:24:20.369Z,9.8
2019-05-22T07:25:20.454Z,9.9
2019-05-22T07:26:20.648Z,10
2019-05-22T07:27:20.547Z,10.2
2019-05-22T07:28:20.620Z,10.3
2019-05-22T07:29:20.628Z,10.1
2019-05-22T07:30:20.724Z,27.2
2019-05-22T07:31:20.796Z,10.5
2019-05-22T07:32:20.819Z,10.1
2019-05-22T07:33:20.894Z,10
2019-05-22T07:34:20.950Z,10
2019-05-22T07:35:21.012Z,18.3
2019-05-22T07:36:21.098Z,10
2019-05-22T07:37:21.109Z,10.4
2019-05-22T07:38:21.228Z,10.4
2019-05-22T07:39:21.221Z,10.3
2019-05-22T07:40:21.340Z,10.3
2019-05-22T07:41:21.383Z,10.3
2019-05-22T07:42:21.406Z,10.3
2019-05-22T07:43:21.505Z,10.3
2019-05-22T07:44:21.556Z,10.1
2019-05-22T07:45:21.560Z,26.7
2019-05-22T07:46:21.672Z,10.3
2019-05-22T07:47:21.729Z,10.3
2019-05-22T07:48:21.739Z,10.3
2019-05-22T07:49:21.804Z,10.3
2019-05-22T07:50:21.847Z,10.1
2019-05-22T07:51:21.947Z,10.1
2019-05-22T07:52:22.022Z,10.2
2019-05-22T07:53:22.074Z,10.2
2019-05-22T07:54:22.086Z,10.2
2019-05-22T07:55:22.144Z,10.3
2019-05-22T07:56:22.213Z,10.3
2019-05-22T07:57:22.250Z,10.4
2019-05-22T07:58:22.303Z,10.4
2019-05-22T07:59:22.321Z,10.3
2019-05-22T08:00:22.436Z,10.3
2019-05-22T08:01:22.456Z,10.3
2019-05-22T08:02:22.554Z,10.5
2019-05-22T08:03:22.556Z,10.6
2019-05-22T08:04:22.684Z,10.5
2019-05-22T08:05:22.954Z,10.4
2019-05-22T08:06:22.762Z,10.3
2019-05-22T08:07:22.820Z,10.4
2019-05-22T08:08:22.856Z,10.5
2019-05-22T08:09:22.909Z,10.5
2019-05-22T08:10:23.007Z,10.5
2019-05-22T08:11:23.080Z,10.5
2019-05-22T08:12:23.133Z,10.5
2019-05-22T08:13:23.184Z,10.5
2019-05-22T08:14:23.231Z,10.6
2019-05-22T08:15:23.327Z,10.6
2019-05-22T08:16:23.325Z,10.7
2019-05-22T08:17:23.643Z,10.6
2019-05-22T08:18:24.124Z,10.6
2019-05-22T08:19:23.858Z,10.6
2019-05-22T08:20:23.587Z,10.5
2019-05-22T08:21:23.885Z,10.5
2019-05-22T08:22:23.822Z,10.7
2019-05-22T08:23:23.817Z,10.7
2019-05-22T08:24:23.868Z,10.8
2019-05-22T08:25:23.933Z,10.8
2019-05-22T08:26:24.524Z,10.9
2019-05-22T08:27:24.462Z,10.8
2019-05-22T08:28:24.361Z,10.7
2019-05-22T08:29:24.443Z,10.7
2019-05-22T08:30:24.221Z,10.7
2019-05-22T08:31:24.438Z,10.8
2019-05-22T08:32:24.546Z,10.8
2019-05-22T08:33:24.478Z,10.9
2019-05-22T08:34:24.450Z,10.9
2019-05-22T08:35:24.852Z,10.9
2019-05-22T08:36:24.816Z,10.8
2019-05-22T08:37:24.642Z,10.7
2019-05-22T08:38:25.048Z,10.7
2019-05-22T08:39:24.756Z,10.8
2019-05-22T08:40:25.200Z,10.9
2019-05-22T08:41:25.471Z,10.9
2019-05-22T08:42:25.213Z,11
2019-05-22T08:43:25.135Z,11
2019-05-22T08:44:25.161Z,11
2019-05-22T08:45:25.095Z,11
2019-05-22T08:46:25.190Z,10.9
2019-05-22T08:47:25.254Z,11.1
2019-05-22T08:48:25.285Z,11
2019-05-22T08:49:25.350Z,11
2019-05-22T08:50:25.396Z,10.9
2019-05-22T08:51:27.455Z,11
2019-05-22T08:52:25.505Z,11.2
2019-05-22T08:53:25.542Z,11.3
2019-05-22T08:54:25.623Z,11.3
2019-05-22T08:55:25.666Z,11.2
2019-05-22T08:56:25.731Z,11.1
2019-05-22T08:57:25.789Z,11.2
2019-05-22T08:58:25.847Z,11.1
2019-05-22T08:59:25.888Z,11.1
2019-05-22T09:00:25.942Z,11.1
2019-05-22T09:01:26.026Z,11.3
2019-05-22T09:02:26.067Z,11.4
2019-05-22T09:03:26.145Z,11.4
2019-05-22T09:04:26.259Z,11.4
2019-05-22T09:05:26.273Z,11.4
2019-05-22T09:06:26.317Z,11.4
2019-05-22T09:07:26.355Z,11.5
2019-05-22T09:08:26.410Z,11.5
2019-05-22T09:09:26.458Z,11.5
2019-05-22T09:10:26.570Z,11.5
2019-05-22T09:11:26.585Z,11.6
2019-05-22T09:12:26.653Z,11.8
2019-05-22T09:13:26.718Z,12
2019-05-22T09:14:26.757Z,12.1
2019-05-22T09:15:26.828Z,12.2
2019-05-22T09:16:26.898Z,11.9
2019-05-22T09:17:26.975Z,11.9
2019-05-22T09:18:27.047Z,12
2019-05-22T09:19:27.099Z,12.1
2019-05-22T09:20:27.210Z,12
2019-05-22T09:21:31.258Z,12
2019-05-22T09:22:39.846Z,11.9
2019-05-22T09:23:27.341Z,11.9
2019-05-22T09:24:27.599Z,12
2019-05-22T09:25:27.457Z,12.2
2019-05-22T09:26:27.538Z,12.3
2019-05-22T09:27:27.637Z,12.2
2019-05-22T09:28:27.649Z,12.2
2019-05-22T09:29:27.676Z,12.2
2019-05-22T09:30:27.745Z,12.2
2019-05-22T09:31:27.789Z,12.2
2019-05-22T09:32:27.841Z,12.2
2019-05-22T09:33:27.893Z,12.2
2019-05-22T09:34:27.976Z,12.3
2019-05-22T09:35:28.003Z,12.5
2019-05-22T09:36:28.098Z,12.4
2019-05-22T09:37:28.140Z,12.4
2019-05-22T09:38:28.196Z,12.5
2019-05-22T09:39:28.224Z,12.9
2019-05-22T09:40:28.306Z,13.2
2019-05-22T09:41:28.345Z,13.1
2019-05-22T09:42:28.436Z,13
2019-05-22T09:43:28.493Z,13.1
2019-05-22T09:44:28.525Z,13.2
2019-05-22T09:45:28.605Z,13.3
2019-05-22T09:46:28.684Z,21.4
2019-05-22T09:47:28.701Z,13.3
2019-05-22T09:48:28.775Z,13.3
2019-05-22T09:49:28.833Z,13.2
2019-05-22T09:50:28.917Z,13.4
2019-05-22T09:51:28.933Z,13.5
2019-05-22T09:52:28.982Z,13.4
2019-05-22T09:53:29.058Z,13.1
2019-05-22T09:54:29.096Z,12.8
2019-05-22T09:55:29.506Z,12.6
2019-05-22T09:56:29.382Z,12.7
2019-05-22T09:57:29.374Z,12.8
2019-05-22T09:58:29.396Z,12.6
2019-05-22T09:59:29.428Z,28.7
2019-05-22T10:00:29.469Z,12.6
2019-05-22T10:01:30.205Z,12.8
2019-05-22T10:02:30.073Z,21.2
2019-05-22T10:03:30.257Z,13.4
2019-05-22T10:04:29.878Z,13.5
2019-05-22T10:05:29.925Z,13.6
2019-05-22T10:06:29.755Z,13.5
2019-05-22T10:07:29.859Z,13.4
2019-05-22T10:08:29.956Z,13.3
2019-05-22T10:09:30.002Z,13.4
2019-05-22T10:10:30.020Z,13.4
2019-05-22T10:11:30.053Z,13.6
2019-05-22T10:12:30.063Z,13.5
2019-05-22T10:13:30.217Z,13.5
2019-05-22T10:14:30.194Z,21.5
2019-05-22T10:15:30.360Z,13.7
2019-05-22T10:16:30.314Z,13.8
2019-05-22T10:17:30.373Z,13.9
2019-05-22T10:18:30.430Z,13.8
2019-05-22T10:19:30.434Z,13.7
2019-05-22T10:20:30.461Z,14
2019-05-22T10:21:30.555Z,14.3
2019-05-22T10:22:30.577Z,14.7
2019-05-22T10:23:30.700Z,14.6
2019-05-22T10:24:30.704Z,14.6
2019-05-22T10:25:30.770Z,14.5
2019-05-22T10:26:30.816Z,14.6
2019-05-22T10:27:30.840Z,14.5
2019-05-22T10:28:30.952Z,14.4
2019-05-22T10:29:32.243Z,14.1
2019-05-22T10:30:31.038Z,13.9
2019-05-22T10:31:31.072Z,14
2019-05-22T10:32:32.309Z,14.3
2019-05-22T10:33:31.245Z,15
2019-05-22T10:34:31.222Z,15.2
2019-05-22T10:35:35.181Z,14.7
2019-05-22T10:38:31.533Z,14.2
2019-05-22T10:39:31.546Z,14.2
2019-05-22T10:40:31.615Z,14.3
2019-05-22T10:41:31.644Z,14.6
2019-05-22T10:42:31.672Z,14.8
2019-05-22T10:43:31.795Z,14.7
2019-05-22T10:44:31.892Z,14.8
2019-05-22T10:45:32.039Z,14.9
2019-05-22T10:46:32.049Z,15.4
2019-05-22T10:47:32.346Z,15.5
2019-05-22T10:48:32.047Z,16
2019-05-22T10:49:32.083Z,16.1
2019-05-22T10:50:32.154Z,16.1
2019-05-22T10:51:32.155Z,16.2
2019-05-22T10:52:32.282Z,16.1
2019-05-22T10:53:34.242Z,16.3
2019-05-22T10:54:32.354Z,16.1
2019-05-22T10:55:32.451Z,15.6
2019-05-22T10:56:32.476Z,15.3
2019-05-22T10:57:32.518Z,15.4
2019-05-22T10:58:32.585Z,31
2019-05-22T10:59:32.621Z,16
2019-05-22T11:00:32.672Z,16.4
2019-05-22T11:01:32.746Z,16.6
2019-05-22T11:02:32.799Z,16.6
2019-05-22T11:03:32.929Z,16.2
2019-05-22T11:04:32.947Z,16
2019-05-22T11:05:32.981Z,15.8
2019-05-22T11:06:33.080Z,15.6
2019-05-22T11:07:33.142Z,15.4
2019-05-22T11:08:34.419Z,15.6
2019-05-22T11:09:33.291Z,16
2019-05-22T11:10:33.799Z,16.2
2019-05-22T11:11:33.424Z,16.4
2019-05-22T11:12:33.460Z,16.5
2019-05-22T11:13:34.318Z,16.7
2019-05-22T11:14:33.580Z,16.8
2019-05-22T11:15:33.706Z,17
2019-05-22T11:16:33.710Z,17.1
2019-05-22T11:17:33.843Z,16.8
2019-05-22T11:18:33.835Z,16.1
2019-05-22T11:19:33.896Z,15.5
2019-05-22T11:20:33.955Z,15.1
2019-05-22T11:21:34.015Z,15
2019-05-22T11:22:35.010Z,14.9
2019-05-22T11:23:50.309Z,15.5
2019-05-22T11:24:34.209Z,16
2019-05-22T11:25:34.263Z,16.1
2019-05-22T11:26:34.365Z,16.1
2019-05-22T11:27:34.401Z,16.2
2019-05-22T11:28:34.570Z,24.1
2019-05-22T11:29:34.485Z,16.6
2019-05-22T11:30:34.540Z,16.6
2019-05-22T11:31:34.606Z,16.8
2019-05-22T11:32:34.689Z,17
2019-05-22T11:33:35.091Z,17.3
2019-05-22T11:34:34.939Z,17.3
2019-05-22T11:35:34.848Z,17
2019-05-22T11:36:35.151Z,24.4
2019-05-22T11:37:35.329Z,17
2019-05-22T11:38:35.169Z,17.1
2019-05-22T11:39:39.105Z,17.3
2019-05-22T11:40:35.175Z,17.1
2019-05-22T11:41:35.227Z,17.3
2019-05-22T11:42:35.202Z,17
2019-05-22T11:43:35.273Z,17.1
2019-05-22T11:44:35.322Z,32.5
2019-05-22T11:45:35.339Z,17.8
2019-05-22T11:46:35.449Z,17.9
2019-05-22T11:47:35.452Z,17.6
2019-05-22T11:48:35.560Z,17.5
2019-05-22T11:49:35.580Z,17.3
2019-05-22T11:50:35.657Z,17.4
2019-05-22T11:51:35.753Z,17.3
2019-05-22T11:52:35.755Z,17.5
2019-05-22T11:53:35.829Z,18
2019-05-22T11:54:35.900Z,18
2019-05-22T11:55:44.655Z,17.9
2019-05-22T11:56:36.027Z,18
2019-05-22T11:57:36.069Z,18.1
2019-05-22T11:58:36.096Z,17.8
2019-05-22T11:59:36.165Z,25
2019-05-22T12:00:36.191Z,17.7
2019-05-22T12:01:36.255Z,18
2019-05-22T12:02:36.329Z,18.2
2019-05-22T12:03:36.380Z,18.3
2019-05-22T12:04:46.998Z,18.3
2019-05-22T12:05:36.457Z,18.6
2019-05-22T12:06:36.580Z,18.7
2019-05-22T12:07:36.586Z,18.5
2019-05-22T12:08:36.612Z,18.6
2019-05-22T12:09:36.721Z,18.5
2019-05-22T12:10:36.768Z,32.9
2019-05-22T12:11:36.930Z,17.8
2019-05-22T12:12:36.866Z,18.1
2019-05-22T12:13:36.934Z,18
2019-05-22T12:14:36.984Z,18.3
2019-05-22T12:15:37.070Z,18.4
2019-05-22T12:16:37.167Z,18.1
2019-05-22T12:17:38.663Z,18.1
2019-05-22T12:18:37.284Z,18.2
2019-05-22T12:19:37.347Z,18.1
2019-05-22T12:20:37.385Z,33
2019-05-22T12:21:37.481Z,17.9
2019-05-22T12:22:37.532Z,17.6
2019-05-22T12:23:37.646Z,17.9
2019-05-22T12:24:37.965Z,18.3
2019-05-22T12:25:37.777Z,18.5
2019-05-22T12:26:37.887Z,18.5
2019-05-22T12:27:37.885Z,18.4
2019-05-22T12:28:37.922Z,18.4
2019-05-22T12:29:37.986Z,18.5
2019-05-22T12:30:38.005Z,18.9
2019-05-22T12:32:59.693Z,19
2019-05-22T12:33:38.167Z,18.6
2019-05-22T12:34:39.818Z,18.3
2019-05-22T12:35:38.586Z,18
2019-05-22T12:36:38.370Z,17.6
2019-05-22T12:37:38.397Z,17.6
2019-05-22T12:38:38.474Z,17.7
2019-05-22T12:39:38.494Z,17.9
2019-05-22T12:40:38.553Z,18.3
2019-05-22T12:41:38.670Z,18.6
2019-05-22T12:42:38.829Z,26.1
2019-05-22T12:43:38.822Z,18.7
2019-05-22T12:44:38.872Z,18.7
2019-05-22T12:45:38.884Z,18.9
2019-05-22T12:46:38.981Z,19.2
2019-05-22T12:47:38.993Z,18.9
2019-05-22T12:48:39.131Z,18.3
2019-05-22T12:49:39.095Z,18.1
2019-05-22T12:50:39.198Z,18.1
2019-05-22T12:51:39.194Z,18.1
2019-05-22T12:52:39.301Z,18
2019-05-22T12:53:39.344Z,17.9
2019-05-22T12:54:46.387Z,18
2019-05-22T12:55:39.452Z,18.1
2019-05-22T12:56:39.513Z,18.1
2019-05-22T12:57:39.546Z,18.3
2019-05-22T12:58:39.616Z,18.5
2019-05-22T12:59:41.248Z,18.7
2019-05-22T13:00:39.757Z,18.6
2019-05-22T13:01:39.789Z,18.1
2019-05-22T13:02:42.384Z,18
2019-05-22T13:03:39.940Z,18.3
2019-05-22T13:04:39.963Z,18.5
2019-05-22T13:05:40.081Z,18.5
2019-05-22T13:06:40.114Z,18.2
2019-05-22T13:07:40.292Z,17.9
2019-05-22T13:08:40.252Z,25.2
2019-05-22T13:09:40.274Z,18
2019-05-22T13:10:40.333Z,18.5
2019-05-22T13:11:40.375Z,18.6
2019-05-22T13:12:40.415Z,18.9
2019-05-22T13:13:40.625Z,19.1
2019-05-22T13:14:40.528Z,19.5
2019-05-22T13:15:40.720Z,19.4
2019-05-22T13:16:45.518Z,19.3
2019-05-22T13:17:40.795Z,19
2019-05-22T13:18:40.843Z,18.6
2019-05-22T13:19:40.963Z,18.6
2019-05-22T13:20:43.681Z,18.7
2019-05-22T13:21:41.004Z,18.7
2019-05-22T13:22:41.033Z,18.8
2019-05-22T13:23:41.162Z,19
2019-05-22T13:24:41.178Z,19.4
2019-05-22T13:25:41.203Z,19.5
2019-05-22T13:26:41.260Z,19.8
2019-05-22T13:27:41.293Z,19.6
2019-05-22T13:28:41.457Z,19.7
2019-05-22T13:29:41.442Z,19.6
2019-05-22T13:30:41.600Z,19.3
2019-05-22T13:31:41.600Z,18.7
2019-05-22T13:32:41.651Z,18.3
2019-05-22T13:33:41.832Z,18.6
2019-05-22T13:34:41.779Z,18.6